createdAt,value
2019-03-27T00:00:42.208Z,102378.75
2019-03-27T00:03:49.936Z,102380.48
2019-03-27T00:07:07.037Z,102373.61
2019-03-27T00:10:15.004Z,102371.05
2019-03-27T00:13:22.920Z,102371.98
2019-03-27T00:16:30.859Z,102369.80
2019-03-27T00:19:38.610Z,102367.66
2019-03-27T00:22:55.818Z,102363.00
2019-03-27T00:26:03.655Z,102363.47
2019-03-27T00:29:11.370Z,102357.48
2019-03-27T00:32:28.580Z,102357.88
2019-03-27T00:35:36.410Z,102370.25
2019-03-27T00:38:44.479Z,102368.65
2019-03-27T00:41:52.247Z,102359.69
2019-03-27T00:45:00.403Z,102356.72
2019-03-27T00:48:17.741Z,102355.83
2019-03-27T00:51:25.783Z,102351.61
2019-03-27T00:54:42.876Z,102352.04
2019-03-27T00:57:50.718Z,102353.27
2019-03-27T01:01:12.239Z,102358.87
2019-03-27T01:04:19.981Z,102360.59
2019-03-27T01:07:37.207Z,102358.42
2019-03-27T01:10:45.125Z,102349.42
2019-03-27T01:13:52.909Z,102355.45
2019-03-27T01:17:10.052Z,102346.88
2019-03-27T01:20:17.876Z,102346.06
2019-03-27T01:23:25.747Z,102350.27
2019-03-27T01:26:42.827Z,102349.10
2019-03-27T01:29:50.487Z,102352.06
2019-03-27T01:32:58.142Z,102344.00
2019-03-27T01:36:05.839Z,102338.42
2019-03-27T01:39:23.071Z,102344.04
2019-03-27T01:42:30.873Z,102345.72
2019-03-27T01:45:38.614Z,102341.91
2019-03-27T01:48:55.826Z,102344.41
2019-03-27T01:52:03.572Z,102352.04
2019-03-27T01:55:11.336Z,102341.41
2019-03-27T01:58:28.445Z,102332.89
2019-03-27T02:01:36.120Z,102341.41
2019-03-27T02:04:43.875Z,102341.84
2019-03-27T02:08:01.200Z,102337.52
2019-03-27T02:11:09.055Z,102335.44
2019-03-27T02:14:17.062Z,102342.20
2019-03-27T02:17:33.989Z,102340.14
2019-03-27T02:20:41.827Z,102342.69
2019-03-27T02:23:49.599Z,102348.23
2019-03-27T02:27:06.977Z,102343.59
2019-03-27T02:30:14.910Z,102349.08
2019-03-27T02:33:22.699Z,102353.39
2019-03-27T02:36:39.817Z,102359.30
2019-03-27T02:39:47.486Z,102352.86
2019-03-27T02:42:55.390Z,102352.41
2019-03-27T02:46:24.638Z,102343.13
2019-03-27T02:49:21.927Z,102336.28
2019-03-27T02:52:29.600Z,102334.13
2019-03-27T02:55:37.267Z,102338.36
2019-03-27T02:58:45.104Z,102338.41
2019-03-27T03:01:52.875Z,102346.02
2019-03-27T03:05:00.708Z,102346.47
2019-03-27T03:08:08.672Z,102348.22
2019-03-27T03:11:16.461Z,102350.35
2019-03-27T03:14:33.333Z,102344.48
2019-03-27T03:17:40.995Z,102344.47
2019-03-27T03:20:48.743Z,102342.69
2019-03-27T03:23:56.485Z,102338.91
2019-03-27T03:27:13.436Z,102332.95
2019-03-27T03:30:21.182Z,102341.43
2019-03-27T03:33:29.319Z,102345.27
2019-03-27T03:36:37.642Z,102349.91
2019-03-27T03:39:45.407Z,102350.79
2019-03-27T03:42:53.262Z,102354.20
2019-03-27T03:46:01.454Z,102351.61
2019-03-27T03:49:09.125Z,102358.41
2019-03-27T03:52:16.953Z,102365.31
2019-03-27T03:55:34.816Z,102343.50
2019-03-27T03:58:43.971Z,102355.11
2019-03-27T04:01:54.133Z,102354.17
2019-03-27T04:05:02.212Z,102356.75
2019-03-27T04:08:10.045Z,102358.45
2019-03-27T04:11:17.926Z,102359.71
2019-03-27T04:14:34.981Z,102355.02
2019-03-27T04:17:42.812Z,102363.97
2019-03-27T04:20:50.542Z,102370.78
2019-03-27T04:24:07.966Z,102368.23
2019-03-27T04:27:15.763Z,102381.09
2019-03-27T04:30:23.510Z,102372.05
2019-03-27T04:33:29.571Z,102362.70
2019-03-27T04:36:36.765Z,102366.09
2019-03-27T04:39:44.514Z,102372.53
2019-03-27T04:42:52.296Z,102374.20
2019-03-27T04:46:09.520Z,102377.95
2019-03-27T04:49:17.185Z,102393.33
2019-03-27T04:52:24.264Z,102392.00
2019-03-27T04:55:32.255Z,102392.11
2019-03-27T04:58:49.154Z,102381.39
2019-03-27T05:02:06.712Z,102374.56
2019-03-27T05:05:14.635Z,102380.95
2019-03-27T05:08:31.605Z,102386.46
2019-03-27T05:11:39.282Z,102391.23
2019-03-27T05:14:47.000Z,102395.05
2019-03-27T05:17:54.988Z,102398.84
2019-03-27T05:21:03.215Z,102407.81
2019-03-27T05:24:20.300Z,102404.83
2019-03-27T05:27:37.238Z,102397.11
2019-03-27T05:30:45.084Z,102397.55
2019-03-27T05:33:52.819Z,102393.28
2019-03-27T05:37:10.022Z,102405.22
2019-03-27T05:40:17.868Z,102411.20
2019-03-27T05:43:25.557Z,102408.18
2019-03-27T05:46:42.737Z,102407.35
2019-03-27T05:49:50.598Z,102411.66
2019-03-27T05:52:58.271Z,102411.21
2019-03-27T05:56:06.260Z,102408.65
2019-03-27T05:59:14.036Z,102409.87
2019-03-27T06:02:21.694Z,102409.96
2019-03-27T06:05:38.781Z,102403.89
2019-03-27T06:08:46.446Z,102415.85
2019-03-27T06:11:54.183Z,102410.36
2019-03-27T06:15:01.919Z,102405.62
2019-03-27T06:18:13.273Z,102403.92
2019-03-27T06:21:19.233Z,102406.89
2019-03-27T06:24:36.376Z,102400.55
2019-03-27T06:27:44.179Z,102404.28
2019-03-27T06:30:52.387Z,102402.52
2019-03-27T06:34:00.269Z,102404.77
2019-03-27T06:37:07.936Z,102411.89
2019-03-27T06:40:25.076Z,102408.92
2019-03-27T06:43:32.911Z,102405.95
2019-03-27T06:46:40.722Z,102408.11
2019-03-27T06:49:48.295Z,102408.53
2019-03-27T06:52:56.134Z,102400.81
2019-03-27T06:56:04.048Z,102399.45
2019-03-27T06:59:21.169Z,102393.05
2019-03-27T07:02:29.144Z,102401.62
2019-03-27T07:05:37.087Z,102399.52
2019-03-27T07:08:44.849Z,102401.20
2019-03-27T07:11:52.857Z,102404.02
2019-03-27T07:15:10.205Z,102395.96
2019-03-27T07:18:17.872Z,102398.41
2019-03-27T07:21:27.019Z,102396.27
2019-03-27T07:24:44.352Z,102391.48
2019-03-27T07:27:52.186Z,102410.77
2019-03-27T07:31:00.073Z,102413.69
2019-03-27T07:34:17.005Z,102408.64
2019-03-27T07:37:24.851Z,102412.73
2019-03-27T07:40:32.711Z,102410.61
2019-03-27T07:43:49.823Z,102418.25
2019-03-27T07:46:57.754Z,102425.03
2019-03-27T07:50:06.018Z,102428.36
2019-03-27T07:53:13.779Z,102428.72
2019-03-27T07:56:21.574Z,102426.59
2019-03-27T07:59:38.786Z,102432.86
2019-03-27T08:02:56.928Z,102428.69
2019-03-27T08:06:13.789Z,102428.22
2019-03-27T08:09:23.107Z,102429.05
2019-03-27T08:12:30.892Z,102429.39
2019-03-27T08:15:48.178Z,102419.65
2019-03-27T08:19:06.905Z,102423.03
2019-03-27T08:22:05.544Z,102416.59
2019-03-27T08:25:22.577Z,102413.98
2019-03-27T08:28:30.569Z,102424.20
2019-03-27T08:31:38.907Z,102418.98
2019-03-27T08:34:46.768Z,102421.97
2019-03-27T08:37:55.350Z,102419.80
2019-03-27T08:41:03.555Z,102425.46
2019-03-27T08:44:11.392Z,102426.66
2019-03-27T08:47:19.147Z,102436.42
2019-03-27T08:50:36.197Z,102428.91
2019-03-27T08:53:44.149Z,102433.25
2019-03-27T08:56:51.912Z,102436.13
2019-03-27T09:00:10.595Z,102431.16
2019-03-27T09:03:18.927Z,102439.95
2019-03-27T09:06:36.226Z,102445.40
2019-03-27T09:09:43.969Z,102453.06
2019-03-27T09:12:51.823Z,102452.20
2019-03-27T09:16:08.935Z,102443.98
2019-03-27T09:19:17.562Z,102451.58
2019-03-27T09:22:34.515Z,102448.44
2019-03-27T09:25:42.595Z,102455.31
2019-03-27T09:28:48.761Z,102452.78
2019-03-27T09:32:05.723Z,102458.23
2019-03-27T09:35:13.574Z,102462.84
2019-03-27T09:38:20.807Z,102465.56
2019-03-27T09:41:28.632Z,102464.75
2019-03-27T09:44:45.765Z,102467.20
2019-03-27T09:47:53.531Z,102454.88
2019-03-27T09:51:01.353Z,102460.58
2019-03-27T09:54:18.469Z,102452.64
2019-03-27T09:57:26.297Z,102466.86
2019-03-27T10:01:02.684Z,102466.91
2019-03-27T10:04:10.608Z,102464.87
2019-03-27T10:07:17.899Z,102467.36
2019-03-27T10:10:25.636Z,102459.56
2019-03-27T10:13:33.510Z,102472.42
2019-03-27T10:16:50.379Z,102459.12
2019-03-27T10:20:07.588Z,102461.18
2019-03-27T10:23:15.438Z,102466.09
2019-03-27T10:26:23.394Z,102464.73
2019-03-27T10:29:31.451Z,102455.06
2019-03-27T10:32:39.261Z,102461.02
2019-03-27T10:35:47.353Z,102458.08
2019-03-27T10:38:55.166Z,102462.94
2019-03-27T10:42:03.176Z,102462.05
2019-03-27T10:45:10.969Z,102462.53
2019-03-27T10:48:28.292Z,102464.91
2019-03-27T10:51:36.133Z,102466.85
2019-03-27T10:54:43.896Z,102472.23
2019-03-27T10:58:00.903Z,102474.39
2019-03-27T11:01:08.635Z,102476.24
2019-03-27T11:04:16.437Z,102477.81
2019-03-27T11:07:33.627Z,102474.95
2019-03-27T11:10:41.564Z,102487.71
2019-03-27T11:13:49.657Z,102486.84
2019-03-27T11:16:57.408Z,102501.85
2019-03-27T11:20:06.551Z,102492.97
2019-03-27T11:23:14.218Z,102497.16
2019-03-27T11:26:31.216Z,102489.77
2019-03-27T11:29:38.966Z,102495.00
2019-03-27T11:32:47.946Z,102500.97
2019-03-27T11:35:55.895Z,102494.48
2019-03-27T11:39:12.883Z,102487.34
2019-03-27T11:42:20.639Z,102493.31
2019-03-27T11:45:28.464Z,102493.78
2019-03-27T11:48:45.586Z,102490.27
2019-03-27T11:51:53.434Z,102498.41
2019-03-27T11:55:01.224Z,102498.51
2019-03-27T11:58:18.642Z,102498.58
2019-03-27T12:01:38.924Z,102508.06
2019-03-27T12:04:36.172Z,102501.64
2019-03-27T12:07:44.320Z,102520.41
2019-03-27T12:10:52.239Z,102508.41
2019-03-27T12:13:59.997Z,102510.59
2019-03-27T12:17:07.856Z,102510.23
2019-03-27T12:20:15.740Z,102514.77
2019-03-27T12:23:23.855Z,102510.95
2019-03-27T12:26:40.874Z,102514.66
2019-03-27T12:29:48.625Z,102515.63
2019-03-27T12:32:56.284Z,102520.43
2019-03-27T12:36:13.802Z,102514.36
2019-03-27T12:39:21.587Z,102526.36
2019-03-27T12:42:29.553Z,102519.14
2019-03-27T12:45:37.432Z,102519.91
2019-03-27T12:48:45.196Z,102514.80
2019-03-27T12:52:05.415Z,102518.95
2019-03-27T12:55:11.897Z,102521.58
2019-03-27T12:58:19.934Z,102521.17
2019-03-27T13:01:27.712Z,102524.18
2019-03-27T13:04:35.587Z,102521.19
2019-03-27T13:07:52.641Z,102515.70
2019-03-27T13:11:09.581Z,102510.42
2019-03-27T13:14:17.423Z,102517.41
2019-03-27T13:17:25.097Z,102524.12
2019-03-27T13:20:42.285Z,102512.18
2019-03-27T13:23:50.049Z,102521.13
2019-03-27T13:26:57.880Z,102525.37
2019-03-27T13:30:15.471Z,102521.92
2019-03-27T13:33:23.131Z,102523.21
2019-03-27T13:36:31.107Z,102522.77
2019-03-27T13:39:38.916Z,102510.92
2019-03-27T13:42:48.097Z,102518.52
2019-03-27T13:45:55.976Z,102509.99
2019-03-27T13:49:03.719Z,102523.16
2019-03-27T13:52:11.489Z,102524.46
2019-03-27T13:55:28.593Z,102516.12
2019-03-27T13:58:36.831Z,102509.26
2019-03-27T14:01:44.894Z,102518.18
2019-03-27T14:04:52.730Z,102513.18
2019-03-27T14:08:00.526Z,102523.34
2019-03-27T14:11:17.447Z,102500.67
2019-03-27T14:14:25.525Z,102507.14
2019-03-27T14:17:33.343Z,102512.77
2019-03-27T14:20:50.602Z,102512.31
2019-03-27T14:23:58.544Z,102524.66
2019-03-27T14:27:06.293Z,102516.71
2019-03-27T14:30:15.338Z,102512.77
2019-03-27T14:33:23.158Z,102529.92
2019-03-27T14:36:30.949Z,102517.02
2019-03-27T14:39:47.875Z,102511.16
2019-03-27T14:42:55.067Z,102515.83
2019-03-27T14:46:02.880Z,102510.19
2019-03-27T14:49:10.591Z,102515.27
2019-03-27T14:52:18.336Z,102519.53
2019-03-27T14:55:26.228Z,102513.42
2019-03-27T14:58:34.272Z,102517.41
2019-03-27T15:01:42.098Z,102526.72
2019-03-27T15:04:50.203Z,102536.96
2019-03-27T15:08:07.381Z,102525.95
2019-03-27T15:11:15.219Z,102527.23
2019-03-27T15:14:22.997Z,102531.08
2019-03-27T15:17:40.217Z,102528.45
2019-03-27T15:20:48.499Z,102526.36
2019-03-27T15:24:05.681Z,102531.09
2019-03-27T15:27:13.541Z,102530.25
2019-03-27T15:30:21.360Z,102534.59
2019-03-27T15:33:38.558Z,102527.66
2019-03-27T15:36:46.404Z,102533.22
2019-03-27T15:39:54.167Z,102528.08
2019-03-27T15:43:11.535Z,102525.22
2019-03-27T15:46:19.780Z,102528.58
2019-03-27T15:49:36.848Z,102529.83
2019-03-27T15:52:44.981Z,102533.31
2019-03-27T15:55:53.008Z,102536.73
2019-03-27T15:59:00.727Z,102536.73
2019-03-27T16:02:08.472Z,102542.73
2019-03-27T16:05:25.625Z,102540.97
2019-03-27T16:08:33.462Z,102542.37
2019-03-27T16:11:41.256Z,102545.73
2019-03-27T16:14:58.507Z,102541.48
2019-03-27T16:18:06.292Z,102552.66
2019-03-27T16:21:14.327Z,102553.89
2019-03-27T16:24:22.484Z,102549.67
2019-03-27T16:27:30.308Z,102560.67
2019-03-27T16:30:47.115Z,102552.11
2019-03-27T16:34:04.475Z,102558.10
2019-03-27T16:37:12.306Z,102552.66
2019-03-27T16:40:44.475Z,102558.11
2019-03-27T16:43:52.319Z,102552.20
2019-03-27T16:47:00.113Z,102558.61
2019-03-27T16:50:08.340Z,102559.16
2019-03-27T16:53:25.492Z,102552.59
2019-03-27T16:56:42.439Z,102555.59
2019-03-27T17:00:00.811Z,102553.89
2019-03-27T17:03:08.480Z,102564.63
2019-03-27T17:06:16.783Z,102549.70
2019-03-27T17:09:24.550Z,102554.89
2019-03-27T17:12:32.216Z,102558.30
2019-03-27T17:15:40.070Z,102560.47
2019-03-27T17:18:47.756Z,102555.37
2019-03-27T17:21:55.518Z,102564.31
2019-03-27T17:25:03.341Z,102565.18
2019-03-27T17:28:11.255Z,102567.70
2019-03-27T17:31:19.335Z,102569.83
2019-03-27T17:34:27.192Z,102573.27
2019-03-27T17:37:35.041Z,102583.16
2019-03-27T17:40:52.080Z,102569.47
2019-03-27T17:43:59.810Z,102582.77
2019-03-27T17:47:08.204Z,102581.91
2019-03-27T17:50:16.755Z,102592.59
2019-03-27T17:53:31.737Z,102585.81
2019-03-27T17:56:34.492Z,102588.73
2019-03-27T17:59:42.515Z,102592.61
2019-03-27T18:02:50.479Z,102585.78
2019-03-27T18:05:58.436Z,102595.49
2019-03-27T18:09:08.308Z,102599.41
2019-03-27T18:12:16.311Z,102604.98
2019-03-27T18:15:23.987Z,102611.34
2019-03-27T18:18:31.752Z,102613.94
2019-03-27T18:21:39.597Z,102619.47
2019-03-27T18:24:56.824Z,102617.77
2019-03-27T18:28:04.830Z,102614.77
2019-03-27T18:31:12.710Z,102620.30
2019-03-27T18:34:35.550Z,102617.75
2019-03-27T18:37:43.368Z,102622.45
2019-03-27T18:40:51.644Z,102619.44
2019-03-27T18:43:58.018Z,102621.59
2019-03-27T18:47:05.827Z,102619.44
2019-03-27T18:50:22.748Z,102614.30
2019-03-27T18:53:30.832Z,102615.19
2019-03-27T18:56:38.592Z,102613.91
2019-03-27T18:59:55.904Z,102607.47
2019-03-27T19:03:04.272Z,102616.95
2019-03-27T19:06:21.196Z,102620.30
2019-03-27T19:09:28.981Z,102616.47
2019-03-27T19:12:36.853Z,102624.16
2019-03-27T19:15:54.064Z,102619.47
2019-03-27T19:19:01.982Z,102610.93
2019-03-27T19:22:10.102Z,102618.64
2019-03-27T19:25:18.001Z,102622.83
2019-03-27T19:28:25.969Z,102622.05
2019-03-27T19:31:33.848Z,102624.56
2019-03-27T19:34:41.854Z,102624.99
2019-03-27T19:37:58.923Z,102619.80
2019-03-27T19:41:06.784Z,102627.58
2019-03-27T19:44:14.780Z,102631.03
2019-03-27T19:47:22.647Z,102623.78
2019-03-27T19:50:30.559Z,102623.78
2019-03-27T19:53:47.651Z,102616.94
2019-03-27T19:56:55.527Z,102627.27
2019-03-27T20:00:03.549Z,102623.34
2019-03-27T20:03:11.449Z,102626.41
2019-03-27T20:06:19.483Z,102627.22
2019-03-27T20:09:36.323Z,102621.73
2019-03-27T20:12:44.145Z,102633.61
2019-03-27T20:15:51.959Z,102636.29
2019-03-27T20:19:09.019Z,102634.52
2019-03-27T20:22:25.756Z,102631.54
2019-03-27T20:25:42.677Z,102630.61
2019-03-27T20:28:50.460Z,102632.87
2019-03-27T20:31:58.370Z,102638.81
2019-03-27T20:35:15.456Z,102631.23
2019-03-27T20:38:23.210Z,102638.88
2019-03-27T20:41:31.288Z,102635.44
2019-03-27T20:44:48.224Z,102635.81
2019-03-27T20:47:56.406Z,102636.29
2019-03-27T20:51:13.886Z,102643.98
2019-03-27T20:54:21.728Z,102640.53
2019-03-27T20:57:29.484Z,102637.61
2019-03-27T21:00:47.031Z,102638.79
2019-03-27T21:03:54.868Z,102638.42
2019-03-27T21:07:02.681Z,102638.04
2019-03-27T21:10:11.160Z,102629.48
2019-03-27T21:13:28.363Z,102638.83
2019-03-27T21:16:36.143Z,102638.84
2019-03-27T21:19:44.012Z,102641.88
2019-03-27T21:23:01.029Z,102636.30
2019-03-27T21:26:09.735Z,102640.19
2019-03-27T21:29:17.699Z,102645.27
2019-03-27T21:32:25.365Z,102644.89
2019-03-27T21:35:42.588Z,102641.46
2019-03-27T21:38:50.353Z,102647.41
2019-03-27T21:41:58.228Z,102643.17
2019-03-27T21:45:15.511Z,102655.92
2019-03-27T21:48:23.228Z,102655.52
2019-03-27T21:51:31.165Z,102657.25
2019-03-27T21:54:39.053Z,102659.41
2019-03-27T21:57:46.822Z,102656.84
2019-03-27T22:00:54.493Z,102658.95
2019-03-27T22:04:11.386Z,102658.92
2019-03-27T22:07:19.504Z,102660.25
2019-03-27T22:10:27.558Z,102669.61
2019-03-27T22:13:35.294Z,102666.62
2019-03-27T22:16:43.027Z,102668.36
2019-03-27T22:20:00.039Z,102673.41
2019-03-27T22:23:16.832Z,102671.36
2019-03-27T22:26:24.739Z,102677.31
2019-03-27T22:29:32.747Z,102675.59
2019-03-27T22:32:51.753Z,102674.27
2019-03-27T22:35:59.245Z,102686.22
2019-03-27T22:39:08.959Z,102684.95
2019-03-27T22:42:16.624Z,102689.67
2019-03-27T22:45:24.459Z,102681.59
2019-03-27T22:48:41.639Z,102679.41
2019-03-27T22:51:49.375Z,102687.11
2019-03-27T22:54:57.048Z,102681.63
2019-03-27T22:58:04.866Z,102690.10
2019-03-27T23:01:12.603Z,102692.31
2019-03-27T23:04:20.937Z,102698.63
2019-03-27T23:07:28.692Z,102688.91
2019-03-27T23:10:36.458Z,102690.56
2019-03-27T23:13:53.730Z,102688.90
2019-03-27T23:17:01.643Z,102683.35
2019-03-27T23:20:09.887Z,102697.84
2019-03-27T23:23:17.729Z,102691.88
2019-03-27T23:26:25.388Z,102679.06
2019-03-27T23:29:42.439Z,102687.11
2019-03-27T23:32:52.195Z,102684.66
2019-03-27T23:35:59.799Z,102683.77
2019-03-27T23:39:16.846Z,102681.22
2019-03-27T23:42:24.632Z,102689.31
2019-03-27T23:45:32.474Z,102685.47
2019-03-27T23:48:49.621Z,102691.40
2019-03-27T23:51:57.357Z,102705.50
2019-03-27T23:55:05.449Z,102698.74
2019-03-27T23:58:22.312Z,102695.70
